Weather reports worldwide

Advertisment
Berlin/Alexanderplatz, Germany (10389): temperature & dewpoint: 16.02.2019 22:00:00 - 22.02.2019 22:00:00 (CET)Berlin/Alexanderplatz, Germany (10389): temperature -5cm: 16.02.2019 22:00:00 - 22.02.2019 22:00:00 (CET)Berlin/Alexanderplatz, Germany (10389): temperature -20cm & temperature -100cm: 16.02.2019 22:00:00 - 22.02.2019 22:00:00 (CET)Berlin/Alexanderplatz, Germany (10389): sunshine duration: 16.02.2019 22:00:00 - 22.02.2019 22:00:00 (CET)Berlin/Alexanderplatz, Germany (10389): precipitation: 16.02.2019 22:00:00 - 22.02.2019 22:00:00 (CET)
Date & Time tt [°C] td [°C] tt -5cm [°C] tt -20cm [°C] tt -100cm [°C] sd [min] rr [mm]
22.02.2019 22:00:00 - - - - - - -
22.02.2019 21:00:00 - - - - - - -
22.02.2019 20:00:00 - - - - - - -
22.02.2019 19:00:00 - - - - - - -
22.02.2019 18:00:00 - - - - - - -
22.02.2019 17:00:00 - - - - - - -
22.02.2019 16:00:00 - - - - - - -
22.02.2019 15:00:00 - - - - - - -
22.02.2019 14:00:00 - - - - - - -
22.02.2019 13:00:00 - - - - - - -
22.02.2019 12:00:00 - - - - - - -
22.02.2019 11:00:00 - - - - - - -
22.02.2019 10:00:00 - - - - - - -
22.02.2019 09:00:00 - - - - - - -
22.02.2019 08:00:00 - - - - - - -
22.02.2019 07:00:00 - - - - - - -
22.02.2019 06:00:00 - - - - - - -
22.02.2019 05:00:00 - - - - - - -
22.02.2019 04:00:00 - - - - - - -
22.02.2019 03:00:00 - - - - - - -
22.02.2019 02:00:00 - - - - - - -
22.02.2019 01:00:00 8,9 7,5 7,7 6,7 5,5 0 0,3
22.02.2019 00:00:00 8,9 7,8 7,7 6,7 5,5 0 0,1
21.02.2019 23:00:00 9,0 7,4 7,7 6,7 5,4 0 0,1
21.02.2019 22:00:00 8,9 7,5 7,7 6,7 5,4 0 0,2
21.02.2019 21:00:00 9,0 7,6 7,7 6,7 5,4 0 0,3
21.02.2019 20:00:00 9,2 7,5 7,8 6,7 5,4 0 1,0
21.02.2019 19:00:00 10,7 6,1 7,8 6,7 5,4 0 0,0
21.02.2019 18:00:00 10,6 5,8 8,0 6,7 5,4 0 0,0
21.02.2019 17:00:00 10,5 5,5 8,4 6,7 5,4 0 0,0
21.02.2019 16:00:00 9,9 5,5 8,7 6,5 5,4 0 0,2
21.02.2019 15:00:00 11,1 3,6 9,5 6,2 5,4 0 0,0
21.02.2019 14:00:00 10,9 3,9 10,5 5,9 5,4 13 0,0
21.02.2019 13:00:00 10,3 4,2 10,6 5,7 5,4 39 0,0
21.02.2019 12:00:00 9,3 4,5 8,6 5,4 5,4 14 0,0
21.02.2019 11:00:00 8,1 4,3 7,0 5,2 5,4 0 0,0
21.02.2019 10:00:00 7,7 3,9 6,0 5,2 5,2 0 0,3
21.02.2019 09:00:00 8,1 3,2 5,6 5,0 5,2 0 0,0
21.02.2019 08:00:00 7,7 3,2 5,0 5,0 5,2 0 0,1
21.02.2019 07:00:00 7,3 3,3 4,9 5,2 5,2 0 0,2
21.02.2019 06:00:00 7,7 2,4 4,8 5,2 5,3 0 0,0
21.02.2019 05:00:00 7,9 1,7 4,7 5,2 5,3 0 0,0
21.02.2019 04:00:00 8,0 1,4 4,6 5,3 5,3 0 0,0
21.02.2019 03:00:00 7,8 1,2 4,4 5,3 5,3 0 0,0
21.02.2019 02:00:00 7,8 1,4 4,3 5,4 5,2 0 0,0
21.02.2019 01:00:00 8,1 1,5 4,6 5,7 5,2 0 0,0
21.02.2019 00:00:00 8,0 1,2 4,5 5,7 5,2 0 0,0
20.02.2019 23:00:00 8,4 1,3 5,2 5,7 5,2 0 0,0
20.02.2019 22:00:00 8,7 1,6 5,6 5,7 5,2 0 0,0
20.02.2019 21:00:00 9,1 2,2 5,9 5,9 5,2 0 0,0
20.02.2019 20:00:00 9,4 2,5 6,2 6,0 5,2 0 0,0
20.02.2019 19:00:00 9,8 2,9 6,5 6,0 5,2 0 0,0
20.02.2019 18:00:00 9,9 3,0 7,2 6,0 5,2 0 0,0
20.02.2019 17:00:00 10,1 2,2 7,8 6,0 5,2 0 0,0
20.02.2019 16:00:00 10,1 2,7 8,5 5,9 5,2 0 0,0
20.02.2019 15:00:00 10,0 2,8 9,5 5,7 5,2 3 0,0
20.02.2019 14:00:00 9,7 2,8 10,2 5,2 5,2 8 0,0
20.02.2019 13:00:00 9,6 2,9 9,9 4,9 5,2 11 0,0
20.02.2019 12:00:00 8,6 2,6 8,4 4,7 5,2 5 0,0
20.02.2019 11:00:00 7,8 2,3 6,5 4,5 5,2 0 0,0
20.02.2019 10:00:00 7,6 2,1 4,8 4,4 5,2 17 0,0
20.02.2019 09:00:00 7,1 1,8 4,6 4,4 5,2 0 0,0
20.02.2019 08:00:00 7,2 2,1 4,1 4,4 5,2 0 0,0
20.02.2019 07:00:00 7,0 2,3 3,9 4,4 5,2 0 0,0
20.02.2019 06:00:00 6,8 2,5 3,7 4,5 5,2 0 0,0
20.02.2019 05:00:00 6,5 2,4 3,4 4,5 5,2 0 0,0
20.02.2019 04:00:00 6,6 2,3 3,9 4,7 5,2 0 0,0
20.02.2019 03:00:00 6,5 2,8 4,1 4,7 5,2 0 0,0
20.02.2019 02:00:00 6,5 2,9 4,1 4,7 5,2 0 0,0
20.02.2019 01:00:00 6,3 2,9 4,1 4,7 5,2 0 0,0
20.02.2019 00:00:00 6,5 2,8 4,3 4,7 5,2 0 0,0
19.02.2019 23:00:00 6,8 3,1 4,5 4,9 5,2 0 0,0
19.02.2019 22:00:00 6,8 3,2 5,0 4,9 5,2 0 0,2
19.02.2019 21:00:00 6,9 3,3 5,4 4,9 5,2 0 1,0
19.02.2019 20:00:00 9,3 1,2 5,5 4,9 5,2 0 0,0
19.02.2019 19:00:00 9,4 1,1 5,7 4,9 5,2 0 0,0
19.02.2019 18:00:00 9,7 1,1 6,1 4,7 5,2 0 0,0
19.02.2019 17:00:00 9,9 1,5 6,7 4,7 5,2 2 0,0
19.02.2019 16:00:00 10,1 2,0 7,4 4,4 5,2 15 0,0
19.02.2019 15:00:00 9,8 2,6 7,6 4,2 5,2 0 0,0
19.02.2019 14:00:00 9,7 3,0 7,5 3,9 5,2 0 0,0
19.02.2019 13:00:00 9,4 2,9 6,7 3,7 5,2 0 0,0
19.02.2019 12:00:00 9,0 2,8 5,6 3,2 5,2 0 0,0
19.02.2019 11:00:00 9,0 1,9 4,5 3,0 5,2 0 0,0
19.02.2019 10:00:00 8,7 1,1 2,8 3,0 5,2 0 0,0
19.02.2019 09:00:00 7,2 0,4 0,7 3,2 5,2 0 0,0
19.02.2019 08:00:00 5,9 0,2 0,7 3,2 5,2 0 0,0
19.02.2019 07:00:00 5,6 0,0 0,8 3,2 5,2 0 0,0
19.02.2019 06:00:00 5,9 -0,2 0,8 3,4 5,2 0 0,0
19.02.2019 05:00:00 6,2 -0,1 0,8 3,7 5,2 0 0,0
19.02.2019 04:00:00 6,2 0,1 0,9 3,7 5,2 0 0,0
19.02.2019 03:00:00 5,5 0,3 0,9 3,9 5,2 0 0,0
19.02.2019 02:00:00 6,2 0,3 0,9 4,0 5,2 0 0,0
19.02.2019 01:00:00 6,4 0,5 0,9 4,2 5,2 0 0,0
19.02.2019 00:00:00 7,2 0,6 1,3 4,5 5,2 0 0,0
18.02.2019 23:00:00 8,0 0,7 1,7 4,7 5,2 0 0,0
18.02.2019 22:00:00 8,5 0,7 2,2 5,0 5,2 0 0,0
18.02.2019 21:00:00 9,5 0,9 3,0 5,2 5,2 0 0,0
18.02.2019 20:00:00 10,2 1,0 3,8 5,5 5,2 0 0,0
18.02.2019 19:00:00 11,4 0,8 5,0 5,7 5,2 0 0,0
18.02.2019 18:00:00 12,2 0,9 6,6 5,7 5,2 0 0,0
18.02.2019 17:00:00 13,8 1,1 8,7 5,7 5,2 29 0,0
18.02.2019 16:00:00 14,7 1,2 11,1 5,2 5,2 55 0,0
18.02.2019 15:00:00 16,0 0,9 13,9 4,5 5,2 60 0,0
18.02.2019 14:00:00 15,2 1,0 13,3 3,7 5,2 60 0,0
18.02.2019 13:00:00 14,4 -0,1 11,5 3,0 5,2 60 0,0
18.02.2019 12:00:00 13,1 0,1 6,5 2,7 5,2 60 0,0
18.02.2019 11:00:00 10,3 0,6 0,4 2,9 5,0 35 0,0
18.02.2019 10:00:00 7,0 -0,5 0,4 3,0 5,0 39 0,0
18.02.2019 09:00:00 4,9 -0,3 0,4 3,0 5,0 41 0,0
18.02.2019 08:00:00 2,9 -0,6 0,4 3,2 5,0 0 0,0
18.02.2019 07:00:00 3,0 -0,3 0,5 3,2 5,0 0 0,0
18.02.2019 06:00:00 3,3 -0,2 0,7 3,4 5,0 0 0,0
18.02.2019 05:00:00 3,4 0,3 0,7 3,5 5,0 0 0,0
18.02.2019 04:00:00 3,9 0,4 0,8 3,7 5,0 0 0,0
18.02.2019 03:00:00 4,4 0,7 0,6 3,7 5,0 0 0,0
18.02.2019 02:00:00 4,8 0,9 0,8 4,0 5,0 0 0,0
18.02.2019 01:00:00 5,7 1,0 1,2 4,2 5,0 0 0,0
18.02.2019 00:00:00 6,6 1,3 1,5 4,4 5,0 0 0,0
17.02.2019 23:00:00 7,4 1,5 1,8 4,7 5,0 0 0,0
17.02.2019 22:00:00 7,7 1,7 2,2 4,7 5,0 0 0,0
17.02.2019 21:00:00 8,5 1,9 2,8 5,0 5,0 0 0,0
17.02.2019 20:00:00 9,4 2,0 3,7 5,2 5,0 0 0,0
17.02.2019 19:00:00 10,2 1,6 4,8 5,4 5,0 0 0,0
17.02.2019 18:00:00 11,4 1,3 6,2 5,5 5,0 0 0,0
17.02.2019 17:00:00 12,6 1,6 8,2 5,4 5,0 19 0,0
17.02.2019 16:00:00 13,3 1,3 10,5 5,0 5,0 53 0,0
17.02.2019 15:00:00 13,7 1,3 12,7 4,4 5,0 60 0,0
17.02.2019 14:00:00 13,7 1,0 12,5 3,7 5,0 60 0,0
17.02.2019 13:00:00 13,0 1,6 10,5 3,0 5,0 60 0,0
17.02.2019 12:00:00 11,1 1,1 6,8 2,7 5,0 60 0,0
17.02.2019 11:00:00 9,5 1,2 0,7 2,7 5,0 28 0,0
17.02.2019 10:00:00 6,4 -0,1 0,4 2,9 5,0 24 0,0
17.02.2019 09:00:00 4,5 -0,5 0,4 3,0 5,0 11 0,0
17.02.2019 08:00:00 3,2 -0,4 0,5 3,0 5,0 0 0,0
17.02.2019 07:00:00 3,6 -0,4 0,5 3,2 5,0 0 0,0
17.02.2019 06:00:00 3,8 -0,6 0,6 3,2 5,0 0 0,0
17.02.2019 05:00:00 4,0 -0,8 0,6 3,4 5,0 0 0,0
17.02.2019 04:00:00 4,7 -0,5 0,7 3,5 5,0 0 0,0
17.02.2019 03:00:00 4,9 -0,3 0,7 3,7 5,0 0 0,0
17.02.2019 02:00:00 5,4 0,0 0,7 3,9 5,0 0 0,0
17.02.2019 01:00:00 6,7 0,2 0,9 4,1 5,1 0 0,0
17.02.2019 00:00:00 7,9 -0,1 1,4 4,3 5,1 0 0,0
16.02.2019 23:00:00 9,1 -0,2 2,1 4,5 5,1 0 0,0
16.02.2019 22:00:00 10,9 -0,6 2,5 4,7 5,1 0 0,0

tt = temperature
td = dewpoint
tt -5cm = temperature -5cm
tt -20cm = temperature -20cm
tt -100cm = temperature -100cm
sd = sunshine duration
rr = precipitation

Next stations